Meteo Giornale » Osservazioni meteo Stati Uniti (USA) » Raton Raton Crews Fld
ore: 22:53 - Osservazioni Meteo Raton Raton Crews Fld
Lat. 36° 44' N Lon. 104° 39' W Alt. 1935 metri s.l.m.
17 °C
Coperto
Temp. 24 Ore
14 °C
31 °C
Nord/Nord-Est
11.1 Km/h
Dew point 13 °C
Umidità 77 %
Visibilità 10 Km
Il sole sorge alle ore 06:29
Il sole tramonta alle ore 19:28
| Data e Ora | Cielo e Fenomeni | T °C | DP °C | Um. % | Pres. hPa | Vis. km | Vento km/h | |
|---|---|---|---|---|---|---|---|---|
| Oggi h: 22:53 | Coperto | 17 | 13 | 77 | 1026 | 10 | N/NE 11.1 | |
| Oggi h: 21:53 | Pioggia | 21 | 9 | 46 | 1027 | 10 | SE 14.8 | |
| Oggi h: 20:53 | Molto Nuvoloso | 21 | 9 | 46 | 1025 | 10 | N 5.5 | |
| Oggi h: 19:53 | Coperto | 22 | 10 | 46 | 1024 | 10 | N/NO 14.8 | |
| Oggi h: 19:11 | Coperto | 23 | 11 | 46 | 1023 | 10 | N 14.8 | |
| Oggi h: 18:53 | Temporale nelle vicinanze | 23 | 10 | 43 | 1023 | 10 | NE 13 | |
| Oggi h: 18:38 | Temporale nelle vicinanze | 24 | 9 | 38 | 1023 | 10 | NE 18.5 | |
| Oggi h: 17:53 | Sereno | 27 | 7 | 28 | 1022 | 10 | NO 11.1 | |
| Oggi h: 16:53 | Poco Nuvoloso | 26 | 7 | 29 | 1022 | 10 | N/NO 27.8 | |
| Oggi h: 15:53 | Poco Nuvoloso | 30 | 7 | 23 | 1022 | 10 | S 16.7 | |
| Oggi h: 14:53 | Nuvoloso | 31 | 7 | 22 | 1023 | 10 | S 20.3 | |
| Oggi h: 13:53 | Sereno | 31 | 8 | 23 | 1023 | 10 | S 18.5 | |
| Oggi h: 12:53 | Sereno | 28 | 8 | 28 | 1025 | 10 | N 5.5 | |
| Oggi h: 11:53 | Sereno | 29 | 9 | 28 | 1025 | 10 | S 16.7 | |
| Oggi h: 10:53 | Sereno | 26 | 9 | 34 | 1026 | 10 | S 7.4 | |
| Oggi h: 09:53 | Sereno | 24 | 9 | 38 | 1026 | 10 | S 9.3 | |
| Oggi h: 08:53 | Nuvoloso | 19 | 11 | 59 | 1026 | 10 | E 11.1 | |
| Oggi h: 07:53 | Sereno | 17 | 10 | 63 | 1026 | 10 | N 5.5 | |
| Oggi h: 06:53 | Sereno | 14 | 9 | 71 | 1025 | 10 | E/NE 7.4 | |
| Oggi h: 05:53 | Sereno | 14 | 9 | 71 | 1025 | 10 | E/NE 7.4 | |
| Oggi h: 04:53 | Sereno | 16 | 9 | 63 | 1025 | 10 | N 5.5 | |
| Oggi h: 03:53 | Sereno | 16 | 9 | 63 | 1025 | 10 | NE 9.3 | |
| Oggi h: 02:53 | Poco Nuvoloso | 19 | 10 | 55 | 1024 | 10 | N 20.3 | |
| Oggi h: 01:53 | Coperto | 19 | 9 | 52 | 1025 | 10 | N/NE 16.7 | |
| Oggi h: 00:53 | Sereno | 19 | 9 | 52 | 1024 | 10 | N 20.3 | |
| Ieri h: 23:53 | Sereno | 20 | 9 | 49 | 1024 | 10 | N 27.8 | |



